createdAt,value
2023-05-24T00:00:36.159Z,19.43
2023-05-24T00:03:05.138Z,18.87
2023-05-24T00:05:32.268Z,18.40
2023-05-24T00:07:59.522Z,21.47
2023-05-24T00:10:26.599Z,17.10
2023-05-24T00:12:53.421Z,15.70
2023-05-24T00:15:20.289Z,17.47
2023-05-24T00:17:47.457Z,15.77
2023-05-24T00:20:14.590Z,18.87
2023-05-24T00:22:41.973Z,17.30
2023-05-24T00:25:09.278Z,16.93
2023-05-24T00:27:37.825Z,18.93
2023-05-24T00:30:05.694Z,21.07
2023-05-24T00:32:32.620Z,16.17
2023-05-24T00:34:59.622Z,20.67
2023-05-24T00:37:26.660Z,17.50
2023-05-24T00:39:53.543Z,15.87
2023-05-24T00:42:20.574Z,16.77
2023-05-24T00:44:47.680Z,18.23
2023-05-24T00:47:14.652Z,19.43
2023-05-24T00:49:41.563Z,14.27
2023-05-24T00:52:09.203Z,16.13
2023-05-24T00:54:36.254Z,15.30
2023-05-24T00:57:03.361Z,17.13
2023-05-24T00:59:30.464Z,15.77
2023-05-24T01:01:57.569Z,21.30
2023-05-24T01:04:24.689Z,16.30
2023-05-24T01:06:51.480Z,16.70
2023-05-24T01:09:44.414Z,17.23
2023-05-24T01:12:15.984Z,18.10
2023-05-24T01:14:57.261Z,17.30
2023-05-24T01:17:27.952Z,17.97
2023-05-24T01:20:06.929Z,17.87
2023-05-24T01:22:49.308Z,16.70
2023-05-24T01:25:34.897Z,17.90
2023-05-24T01:28:04.432Z,19.13
2023-05-24T01:30:31.336Z,17.00
2023-05-24T01:32:58.466Z,17.67
2023-05-24T01:35:25.362Z,17.63
2023-05-24T01:37:52.213Z,17.20
2023-05-24T01:40:19.046Z,16.50
2023-05-24T01:42:48.050Z,18.70
2023-05-24T01:45:17.322Z,16.33
2023-05-24T01:47:50.611Z,17.27
2023-05-24T01:50:20.797Z,19.23
2023-05-24T01:52:49.373Z,17.67
2023-05-24T01:55:17.861Z,18.53
2023-05-24T01:57:46.450Z,17.43
2023-05-24T02:00:15.199Z,19.30
2023-05-24T02:02:42.230Z,18.67
2023-05-24T02:05:10.073Z,19.70
2023-05-24T02:07:36.903Z,17.43
2023-05-24T02:10:04.639Z,17.70
2023-05-24T02:12:31.524Z,19.97
2023-05-24T02:14:58.555Z,18.00
2023-05-24T02:17:27.004Z,22.77
2023-05-24T02:19:53.947Z,18.57
2023-05-24T02:22:22.631Z,21.10
2023-05-24T02:24:49.578Z,18.30
2023-05-24T02:27:16.379Z,19.33
2023-05-24T02:29:43.293Z,22.80
2023-05-24T02:32:10.469Z,21.10
2023-05-24T02:34:37.301Z,22.10
2023-05-24T02:37:05.028Z,21.57
2023-05-24T02:39:31.930Z,25.03
2023-05-24T02:41:58.760Z,22.17
2023-05-24T02:44:25.694Z,24.93
2023-05-24T02:46:52.477Z,19.60
2023-05-24T02:49:19.432Z,21.97
2023-05-24T02:51:46.866Z,20.07
2023-05-24T02:54:13.821Z,20.23
2023-05-24T02:56:41.151Z,21.77
2023-05-24T02:59:08.812Z,21.13
2023-05-24T03:01:35.883Z,23.60
2023-05-24T03:04:03.774Z,24.73
2023-05-24T03:06:31.333Z,19.77
2023-05-24T03:08:58.638Z,20.53
2023-05-24T03:11:26.446Z,24.47
2023-05-24T03:13:53.391Z,21.67
2023-05-24T03:16:21.317Z,26.47
2023-05-24T03:18:50.896Z,24.00
2023-05-24T03:21:21.010Z,19.13
2023-05-24T03:23:48.572Z,16.80
2023-05-24T03:26:15.744Z,15.50
2023-05-24T03:28:42.588Z,17.93
2023-05-24T03:31:09.691Z,12.00
2023-05-24T03:33:37.538Z,11.23
2023-05-24T03:36:04.891Z,7.53
2023-05-24T03:38:33.863Z,11.33
2023-05-24T03:41:00.998Z,7.47
2023-05-24T03:43:29.079Z,7.73
2023-05-24T03:45:58.760Z,4.77
2023-05-24T03:48:25.821Z,3.27
2023-05-24T03:50:53.283Z,4.17
2023-05-24T03:53:22.845Z,5.90
2023-05-24T03:55:50.083Z,4.57
2023-05-24T03:58:17.011Z,2.47
2023-05-24T04:00:44.802Z,2.70
2023-05-24T04:03:13.066Z,4.07
2023-05-24T04:05:40.037Z,5.50
2023-05-24T04:08:07.068Z,1.80
2023-05-24T04:10:36.575Z,2.40
2023-05-24T04:13:03.489Z,2.07
2023-05-24T04:15:31.198Z,2.33
2023-05-24T04:17:58.118Z,2.17
2023-05-24T04:20:25.906Z,4.07
2023-05-24T04:22:53.068Z,1.57
2023-05-24T04:25:21.176Z,1.73
2023-05-24T04:27:51.070Z,2.87
2023-05-24T04:30:18.338Z,2.33
2023-05-24T04:32:45.210Z,1.83
2023-05-24T04:35:12.700Z,2.00
2023-05-24T04:37:40.688Z,1.33
2023-05-24T04:40:08.274Z,1.30
2023-05-24T04:42:35.426Z,1.83
2023-05-24T04:45:02.506Z,5.10
2023-05-24T04:47:29.451Z,1.60
2023-05-24T04:49:56.286Z,2.03
2023-05-24T04:52:23.301Z,2.97
2023-05-24T04:54:50.247Z,2.67
2023-05-24T04:57:17.356Z,1.87
2023-05-24T04:59:44.462Z,4.30
2023-05-24T05:02:11.648Z,2.50
2023-05-24T05:04:38.621Z,2.03
2023-05-24T05:07:05.567Z,2.67
2023-05-24T05:09:32.600Z,1.90
2023-05-24T05:12:00.060Z,1.83
2023-05-24T05:14:26.996Z,2.07
2023-05-24T05:16:53.844Z,2.27
2023-05-24T05:19:21.130Z,1.50
2023-05-24T05:21:47.945Z,2.50
2023-05-24T05:24:15.770Z,2.43
2023-05-24T05:26:42.902Z,2.87
2023-05-24T05:29:09.904Z,3.03
2023-05-24T05:31:37.163Z,2.40
2023-05-24T05:34:04.006Z,2.67
2023-05-24T05:36:31.291Z,3.20
2023-05-24T05:38:58.158Z,2.00
2023-05-24T05:41:25.041Z,2.27
2023-05-24T05:43:51.894Z,2.47
2023-05-24T05:46:21.056Z,1.77
2023-05-24T05:48:47.937Z,2.47
2023-05-24T05:51:14.778Z,4.47
2023-05-24T05:53:41.617Z,5.00
2023-05-24T05:56:08.511Z,2.57
2023-05-24T05:58:35.366Z,3.03
2023-05-24T06:01:02.191Z,3.13
2023-05-24T06:03:29.202Z,3.63
2023-05-24T06:05:56.272Z,3.77
2023-05-24T06:08:23.051Z,5.20
2023-05-24T06:10:51.996Z,4.33
2023-05-24T06:13:19.671Z,3.40
2023-05-24T06:15:46.599Z,6.37
2023-05-24T06:18:13.826Z,4.10
2023-05-24T06:20:40.802Z,5.07
2023-05-24T06:23:08.119Z,3.37
2023-05-24T06:25:35.278Z,6.10
2023-05-24T06:28:02.156Z,3.60
2023-05-24T06:30:29.152Z,4.73
2023-05-24T06:32:56.583Z,4.43
2023-05-24T06:35:23.607Z,6.00
2023-05-24T06:37:50.445Z,4.83
2023-05-24T06:40:17.557Z,5.47
2023-05-24T06:42:44.425Z,3.93
2023-05-24T06:45:11.530Z,4.53
2023-05-24T06:47:38.865Z,4.97
2023-05-24T06:50:06.161Z,4.10
2023-05-24T06:52:32.933Z,4.87
2023-05-24T06:54:59.887Z,2.97
2023-05-24T06:57:27.220Z,2.07
2023-05-24T06:59:54.082Z,2.47
2023-05-24T07:02:26.766Z,2.93
2023-05-24T07:04:53.860Z,3.83
2023-05-24T07:07:20.980Z,3.33
2023-05-24T07:09:47.878Z,2.90
2023-05-24T07:12:14.739Z,3.10
2023-05-24T07:14:41.810Z,2.47
2023-05-24T07:17:08.962Z,2.90
2023-05-24T07:19:36.240Z,3.93
2023-05-24T07:22:03.187Z,3.27
2023-05-24T07:24:30.134Z,3.07
2023-05-24T07:26:57.865Z,5.37
2023-05-24T07:29:26.161Z,3.03
2023-05-24T07:31:56.346Z,3.43
2023-05-24T07:34:24.856Z,3.57
2023-05-24T07:36:51.652Z,4.67
2023-05-24T07:39:19.195Z,2.57
2023-05-24T07:41:46.127Z,2.77
2023-05-24T07:44:13.434Z,3.00
2023-05-24T07:46:40.441Z,3.97
2023-05-24T07:49:07.339Z,4.97
2023-05-24T07:51:34.395Z,2.73
2023-05-24T07:54:01.324Z,2.80
2023-05-24T07:56:28.149Z,4.23
2023-05-24T07:58:59.617Z,4.33
2023-05-24T08:01:26.519Z,2.50
2023-05-24T08:03:53.514Z,3.33
2023-05-24T08:06:20.468Z,3.10
2023-05-24T08:08:47.944Z,4.13
2023-05-24T08:11:14.826Z,1.50
2023-05-24T08:13:41.826Z,2.87
2023-05-24T08:16:08.776Z,3.20
2023-05-24T08:18:35.666Z,6.03
2023-05-24T08:21:02.760Z,3.37
2023-05-24T08:23:33.859Z,2.53
2023-05-24T08:26:00.859Z,3.00
2023-05-24T08:28:28.456Z,4.47
2023-05-24T08:30:55.873Z,2.40
2023-05-24T08:33:23.469Z,2.80
2023-05-24T08:35:51.143Z,3.77
2023-05-24T08:38:18.255Z,3.57
2023-05-24T08:40:45.415Z,2.33
2023-05-24T08:43:12.363Z,2.70
2023-05-24T08:45:39.900Z,5.60
2023-05-24T08:48:07.467Z,3.67
2023-05-24T08:50:34.933Z,4.80
2023-05-24T08:53:04.971Z,2.97
2023-05-24T08:55:39.495Z,4.43
2023-05-24T08:58:06.644Z,4.97
2023-05-24T09:00:33.643Z,3.77
2023-05-24T09:03:01.492Z,4.27
2023-05-24T09:05:28.959Z,3.10
2023-05-24T09:07:56.097Z,5.57
2023-05-24T09:10:23.155Z,4.20
2023-05-24T09:12:55.500Z,3.20
2023-05-24T09:15:22.494Z,3.93
2023-05-24T09:17:49.359Z,7.03
2023-05-24T09:20:16.741Z,6.43
2023-05-24T09:22:44.279Z,6.33
2023-05-24T09:25:13.434Z,3.90
2023-05-24T09:27:40.490Z,6.80
2023-05-24T09:30:11.100Z,6.13
2023-05-24T09:32:38.481Z,6.30
2023-05-24T09:35:08.698Z,4.37
2023-05-24T09:37:36.356Z,8.77
2023-05-24T09:40:07.277Z,5.90
2023-05-24T09:42:34.301Z,7.20
2023-05-24T09:45:09.739Z,8.20
2023-05-24T09:47:37.329Z,4.97
2023-05-24T09:50:04.998Z,4.20
2023-05-24T09:52:33.834Z,6.40
2023-05-24T09:55:01.960Z,4.93
2023-05-24T09:57:28.750Z,6.93
2023-05-24T09:59:56.663Z,6.13
2023-05-24T10:02:26.110Z,6.83
2023-05-24T10:05:00.993Z,7.07
2023-05-24T10:07:28.113Z,7.07
2023-05-24T10:09:55.459Z,8.67
2023-05-24T10:12:23.530Z,6.57
2023-05-24T10:14:51.749Z,13.93
2023-05-24T10:17:18.638Z,9.00
2023-05-24T10:19:46.560Z,7.30
2023-05-24T10:22:14.396Z,6.87
2023-05-24T10:24:44.599Z,8.27
2023-05-24T10:27:14.246Z,7.03
2023-05-24T10:29:47.277Z,7.60
2023-05-24T10:32:16.119Z,8.37
2023-05-24T10:34:43.263Z,6.97
2023-05-24T10:37:10.249Z,7.70
2023-05-24T10:39:37.551Z,9.67
2023-05-24T10:42:06.661Z,10.67
2023-05-24T10:44:35.823Z,11.53
2023-05-24T10:47:07.216Z,14.50
2023-05-24T10:49:34.072Z,11.10
2023-05-24T10:52:01.710Z,9.47
2023-05-24T10:54:28.849Z,7.73
2023-05-24T10:56:57.118Z,7.73
2023-05-24T10:59:23.972Z,9.83
2023-05-24T11:01:58.374Z,6.97
2023-05-24T11:04:25.765Z,7.37
2023-05-24T11:06:56.945Z,8.23
2023-05-24T11:09:24.373Z,13.67
2023-05-24T11:11:54.333Z,10.40
2023-05-24T11:14:27.581Z,9.17
2023-05-24T11:16:55.293Z,8.80
2023-05-24T11:19:23.460Z,12.80
2023-05-24T11:21:51.664Z,10.43
2023-05-24T11:24:19.366Z,8.63
2023-05-24T11:26:46.767Z,9.33
2023-05-24T11:29:17.736Z,8.87
2023-05-24T11:31:55.562Z,10.23
2023-05-24T11:34:22.584Z,12.67
2023-05-24T11:36:50.257Z,7.23
2023-05-24T11:39:17.317Z,12.10
2023-05-24T11:41:44.627Z,10.47
2023-05-24T11:44:12.117Z,9.93
2023-05-24T11:46:39.697Z,17.10
2023-05-24T11:49:07.168Z,11.77
2023-05-24T11:51:35.148Z,12.07
2023-05-24T11:54:01.936Z,9.23
2023-05-24T11:56:33.851Z,11.33
2023-05-24T11:59:09.439Z,13.17
2023-05-24T12:01:36.293Z,10.17
2023-05-24T12:04:05.426Z,12.17
2023-05-24T12:06:36.781Z,12.47
2023-05-24T12:09:06.116Z,14.67
2023-05-24T12:11:32.987Z,10.30
2023-05-24T12:14:00.164Z,8.70
2023-05-24T12:16:27.568Z,7.63
2023-05-24T12:19:04.169Z,11.13
2023-05-24T12:21:35.357Z,10.93
2023-05-24T12:24:09.684Z,11.93
2023-05-24T12:26:37.450Z,8.90
2023-05-24T12:29:04.315Z,10.53
2023-05-24T12:31:31.311Z,8.90
2023-05-24T12:33:58.222Z,9.17
2023-05-24T12:36:25.095Z,13.20
2023-05-24T12:38:51.865Z,12.37
2023-05-24T12:41:18.928Z,13.67
2023-05-24T12:43:45.823Z,7.03
2023-05-24T12:46:13.375Z,12.07
2023-05-24T12:48:40.406Z,10.77
2023-05-24T12:51:08.784Z,9.67
2023-05-24T12:53:36.715Z,12.00
2023-05-24T12:56:03.640Z,12.20
2023-05-24T12:58:30.786Z,15.60
2023-05-24T13:00:57.751Z,9.83
2023-05-24T13:03:24.613Z,15.67
2023-05-24T13:05:51.803Z,12.00
2023-05-24T13:08:18.728Z,10.93
2023-05-24T13:10:45.754Z,10.20
2023-05-24T13:13:12.656Z,10.60
2023-05-24T13:15:39.554Z,15.23
2023-05-24T13:18:06.415Z,10.17
2023-05-24T13:20:34.025Z,11.63
2023-05-24T13:23:00.959Z,10.87
2023-05-24T13:25:27.828Z,11.00
2023-05-24T13:27:55.171Z,13.83
2023-05-24T13:30:27.754Z,11.57
2023-05-24T13:32:55.689Z,9.00
2023-05-24T13:35:22.799Z,9.67
2023-05-24T13:37:49.629Z,10.53
2023-05-24T13:40:16.871Z,9.23
2023-05-24T13:42:43.953Z,8.77
2023-05-24T13:45:11.709Z,8.80
2023-05-24T13:47:40.441Z,8.70
2023-05-24T13:50:07.982Z,11.17
2023-05-24T13:52:35.187Z,16.33
2023-05-24T13:55:04.834Z,11.70
2023-05-24T13:57:49.482Z,12.17
2023-05-24T14:00:18.479Z,7.83
2023-05-24T14:02:45.475Z,16.83
2023-05-24T14:05:24.798Z,12.40
2023-05-24T14:07:53.476Z,9.67
2023-05-24T14:10:21.780Z,12.97
2023-05-24T14:12:59.533Z,7.60
2023-05-24T14:15:31.064Z,9.47
2023-05-24T14:17:58.951Z,12.50
2023-05-24T14:20:25.929Z,7.63
2023-05-24T14:22:52.879Z,7.97
2023-05-24T14:25:20.372Z,9.93
2023-05-24T14:27:47.210Z,11.87
2023-05-24T14:30:14.461Z,9.70
2023-05-24T14:32:41.433Z,10.13
2023-05-24T14:35:08.491Z,8.47
2023-05-24T14:37:35.317Z,6.70
2023-05-24T14:40:02.757Z,10.20
2023-05-24T14:42:29.586Z,7.40
2023-05-24T14:44:56.838Z,9.17
2023-05-24T14:47:23.691Z,9.10
2023-05-24T14:49:50.674Z,8.87
2023-05-24T14:52:17.597Z,6.60
2023-05-24T14:54:44.469Z,9.37
2023-05-24T14:57:11.405Z,8.03
2023-05-24T14:59:38.238Z,11.63
2023-05-24T15:02:05.154Z,7.87
2023-05-24T15:04:32.251Z,25.07
2023-05-24T15:06:59.204Z,10.37
2023-05-24T15:09:26.018Z,7.67
2023-05-24T15:11:52.993Z,10.40
2023-05-24T15:14:19.794Z,10.20
2023-05-24T15:16:46.845Z,8.50
2023-05-24T15:19:13.983Z,14.13
2023-05-24T15:21:40.792Z,8.13
2023-05-24T15:24:08.078Z,10.43
2023-05-24T15:26:35.021Z,9.93
2023-05-24T15:29:04.060Z,10.97
2023-05-24T15:31:31.002Z,7.70
2023-05-24T15:33:57.922Z,10.20
2023-05-24T15:36:24.722Z,8.87
2023-05-24T15:38:51.927Z,9.57
2023-05-24T15:41:18.793Z,9.27
2023-05-24T15:43:45.827Z,6.00
2023-05-24T15:46:12.739Z,8.30
2023-05-24T15:48:39.635Z,7.47
2023-05-24T15:53:37.718Z,14.23
2023-05-24T15:56:05.016Z,8.87
2023-05-24T15:58:31.924Z,6.13
2023-05-24T16:00:58.756Z,8.53
2023-05-24T16:03:26.162Z,8.63
2023-05-24T16:05:53.153Z,8.80
2023-05-24T16:08:20.240Z,10.17
2023-05-24T16:10:48.539Z,9.57
2023-05-24T16:13:15.475Z,8.70
2023-05-24T16:15:42.739Z,27.77
2023-05-24T16:18:09.784Z,9.37
2023-05-24T16:20:36.823Z,11.47
2023-05-24T16:23:04.493Z,25.30
2023-05-24T16:25:31.310Z,10.43
2023-05-24T16:27:58.225Z,10.00
2023-05-24T16:30:25.737Z,8.10
2023-05-24T16:32:52.722Z,8.30
2023-05-24T16:35:19.822Z,6.97
2023-05-24T16:37:48.540Z,8.47
2023-05-24T16:40:15.596Z,7.43
2023-05-24T16:42:42.421Z,8.43
2023-05-24T16:45:09.514Z,6.70
2023-05-24T16:47:36.894Z,8.13
2023-05-24T16:50:04.150Z,7.83
2023-05-24T16:52:31.136Z,9.40
2023-05-24T16:54:58.002Z,6.80
2023-05-24T16:57:24.871Z,15.03
2023-05-24T16:59:52.245Z,8.97
2023-05-24T17:02:19.028Z,7.20
2023-05-24T17:04:45.971Z,10.80
2023-05-24T17:07:12.815Z,7.67
2023-05-24T17:09:39.748Z,7.37
2023-05-24T17:12:07.016Z,6.73
2023-05-24T17:14:33.945Z,10.13
2023-05-24T17:17:00.816Z,8.60
2023-05-24T17:19:28.113Z,7.23
2023-05-24T17:21:55.259Z,10.97
2023-05-24T17:24:22.685Z,24.17
2023-05-24T17:26:49.638Z,7.23
2023-05-24T17:29:16.501Z,8.93
2023-05-24T17:31:43.402Z,27.13
2023-05-24T17:34:10.416Z,6.93
2023-05-24T17:36:37.841Z,12.40
2023-05-24T17:39:07.439Z,10.30
2023-05-24T17:41:34.320Z,7.97
2023-05-24T17:44:01.269Z,12.37
2023-05-24T17:46:28.252Z,10.63
2023-05-24T17:48:55.142Z,9.47
2023-05-24T17:51:24.420Z,10.97
2023-05-24T17:53:51.537Z,10.33
2023-05-24T17:56:18.700Z,8.37
2023-05-24T17:58:47.590Z,9.03
2023-05-24T18:01:15.436Z,9.97
2023-05-24T18:03:43.190Z,11.00
2023-05-24T18:06:10.661Z,9.83
2023-05-24T18:08:38.942Z,12.23
2023-05-24T18:11:08.716Z,7.20
2023-05-24T18:13:39.334Z,11.43
2023-05-24T18:16:06.975Z,9.70
2023-05-24T18:18:34.456Z,21.20
2023-05-24T18:21:01.651Z,16.13
2023-05-24T18:23:28.636Z,22.67
2023-05-24T18:26:01.236Z,15.97
2023-05-24T18:28:30.116Z,13.77
2023-05-24T18:30:56.940Z,30.70
2023-05-24T18:33:24.436Z,30.00
2023-05-24T18:35:51.452Z,42.47
2023-05-24T18:38:18.271Z,30.80
2023-05-24T18:40:45.131Z,38.33
2023-05-24T18:43:12.801Z,47.30
2023-05-24T18:45:39.582Z,16.13
2023-05-24T18:48:07.245Z,13.80
2023-05-24T18:50:34.047Z,16.20
2023-05-24T18:53:01.273Z,12.67
2023-05-24T18:55:28.338Z,18.13
2023-05-24T18:57:55.248Z,12.80
2023-05-24T19:00:23.005Z,9.30
2023-05-24T19:02:50.144Z,12.63
2023-05-24T19:05:17.137Z,13.17
2023-05-24T19:07:43.952Z,14.33
2023-05-24T19:10:11.295Z,10.20
2023-05-24T19:12:38.136Z,13.47
2023-05-24T19:15:05.371Z,12.73
2023-05-24T19:17:32.197Z,9.40
2023-05-24T19:19:59.227Z,11.97
2023-05-24T19:22:28.672Z,9.73
2023-05-24T19:24:56.473Z,10.57
2023-05-24T19:27:24.744Z,9.40
2023-05-24T19:29:51.915Z,13.50
2023-05-24T19:32:20.423Z,9.60
2023-05-24T19:34:47.591Z,12.60
2023-05-24T19:37:15.926Z,11.07
2023-05-24T19:39:42.803Z,10.63
2023-05-24T19:42:10.064Z,12.30
2023-05-24T19:44:36.909Z,10.50
2023-05-24T19:47:04.107Z,11.13
2023-05-24T19:49:31.410Z,10.97
2023-05-24T19:51:58.250Z,13.17
2023-05-24T19:54:25.047Z,12.97
2023-05-24T19:56:52.741Z,12.93
2023-05-24T19:59:19.544Z,11.13
2023-05-24T20:01:46.451Z,14.77
2023-05-24T20:04:13.578Z,14.27
2023-05-24T20:06:40.560Z,12.40
2023-05-24T20:09:07.407Z,16.30
2023-05-24T20:11:35.326Z,10.70
2023-05-24T20:14:02.339Z,12.50
2023-05-24T20:16:29.707Z,14.43
2023-05-24T20:18:56.569Z,17.93
2023-05-24T20:21:23.374Z,13.27
2023-05-24T20:23:55.255Z,14.63
2023-05-24T20:26:24.167Z,12.00
2023-05-24T20:28:52.167Z,11.03
2023-05-24T20:31:19.059Z,15.97
2023-05-24T20:33:46.069Z,14.53
2023-05-24T20:36:15.186Z,14.23
2023-05-24T20:38:42.209Z,9.90
2023-05-24T20:41:09.313Z,14.57
2023-05-24T20:43:36.189Z,13.10
2023-05-24T20:46:03.168Z,13.67
2023-05-24T20:48:30.043Z,13.97
2023-05-24T20:50:57.325Z,11.10
2023-05-24T20:53:24.118Z,11.63
2023-05-24T20:55:50.998Z,13.23
2023-05-24T20:58:18.050Z,10.60
2023-05-24T21:00:44.918Z,13.17
2023-05-24T21:03:12.124Z,13.47
2023-05-24T21:05:40.491Z,11.60
2023-05-24T21:08:07.485Z,13.83
2023-05-24T21:10:34.421Z,14.67
2023-05-24T21:13:01.398Z,12.60
2023-05-24T21:15:28.187Z,13.33
2023-05-24T21:17:55.209Z,14.70
2023-05-24T21:20:22.238Z,12.50
2023-05-24T21:22:49.155Z,12.57
2023-05-24T21:25:16.124Z,11.07
2023-05-24T21:27:42.922Z,18.50
2023-05-24T21:30:10.014Z,11.60
2023-05-24T21:32:36.878Z,11.63
2023-05-24T21:35:03.959Z,14.47
2023-05-24T21:37:30.752Z,15.57
2023-05-24T21:39:57.672Z,14.87
2023-05-24T21:42:24.438Z,12.50
2023-05-24T21:44:51.234Z,14.47
2023-05-24T21:47:18.174Z,13.13
2023-05-24T21:49:45.012Z,11.27
2023-05-24T21:52:11.980Z,15.37
2023-05-24T21:54:38.800Z,10.67
2023-05-24T21:57:06.950Z,11.10
2023-05-24T21:59:33.816Z,11.60
2023-05-24T22:02:00.742Z,14.47
2023-05-24T22:04:27.549Z,9.30
2023-05-24T22:06:54.499Z,11.67
2023-05-24T22:09:21.347Z,16.20
2023-05-24T22:11:48.445Z,12.87
2023-05-24T22:14:15.654Z,12.97
2023-05-24T22:16:42.686Z,10.77
2023-05-24T22:19:14.970Z,10.67
2023-05-24T22:21:43.687Z,11.43
2023-05-24T22:24:10.702Z,10.70
2023-05-24T22:26:37.680Z,16.37
2023-05-24T22:29:04.839Z,11.17
2023-05-24T22:31:33.715Z,9.40
2023-05-24T22:34:03.719Z,9.30
2023-05-24T22:36:33.357Z,9.90
2023-05-24T22:39:00.829Z,17.57
2023-05-24T22:41:28.018Z,11.47
2023-05-24T22:43:55.807Z,10.37
2023-05-24T22:46:22.881Z,13.30
2023-05-24T22:48:52.507Z,11.67
2023-05-24T22:51:20.050Z,9.10
2023-05-24T22:53:47.470Z,13.23
2023-05-24T22:56:14.401Z,10.67
2023-05-24T22:58:41.342Z,11.40
2023-05-24T23:01:08.180Z,10.77
2023-05-24T23:03:35.123Z,11.60
2023-05-24T23:06:04.663Z,11.60
2023-05-24T23:08:34.480Z,15.47
2023-05-24T23:11:01.374Z,11.23
2023-05-24T23:13:33.906Z,13.07
2023-05-24T23:16:00.812Z,10.97
2023-05-24T23:18:28.206Z,12.63
2023-05-24T23:20:56.241Z,12.63
2023-05-24T23:23:24.097Z,12.33
2023-05-24T23:25:53.615Z,11.63
2023-05-24T23:28:20.647Z,16.90
2023-05-24T23:30:47.490Z,10.93
2023-05-24T23:33:14.785Z,11.13
2023-05-24T23:35:41.850Z,13.63
2023-05-24T23:38:09.018Z,11.40
2023-05-24T23:40:36.767Z,9.83
2023-05-24T23:43:04.345Z,12.07
2023-05-24T23:45:31.363Z,12.87
2023-05-24T23:47:58.648Z,13.03
2023-05-24T23:50:25.708Z,13.07
2023-05-24T23:52:52.571Z,9.53
2023-05-24T23:55:19.792Z,10.07
2023-05-24T23:57:47.731Z,14.03
